createdAt,value
2015-09-03T00:00:01.413Z,3.79
2015-09-03T00:00:13.821Z,3.72
2015-09-03T00:00:25.509Z,3.76
2015-09-03T00:00:37.931Z,3.76
2015-09-03T00:00:50.352Z,3.79
2015-09-03T00:01:02.759Z,3.79
2015-09-03T00:01:15.152Z,3.75
2015-09-03T00:01:27.559Z,3.74
2015-09-03T00:01:39.230Z,3.84
2015-09-03T00:01:51.621Z,3.76
2015-09-03T00:02:04.027Z,3.89
2015-09-03T00:02:16.436Z,3.79
2015-09-03T00:02:28.857Z,3.82
2015-09-03T00:02:41.264Z,3.79
2015-09-03T00:02:53.654Z,3.72
2015-09-03T00:03:06.045Z,3.84
2015-09-03T00:03:18.453Z,3.85
2015-09-03T00:03:30.844Z,3.84
2015-09-03T00:03:43.234Z,3.78
2015-09-03T00:03:55.641Z,3.79
2015-09-03T00:04:08.063Z,3.78
2015-09-03T00:04:20.470Z,3.79
2015-09-03T00:04:32.907Z,3.82
2015-09-03T00:04:45.298Z,3.79
2015-09-03T00:04:57.689Z,3.78
2015-09-03T00:05:10.079Z,3.82
2015-09-03T00:05:22.456Z,3.79
2015-09-03T00:05:34.691Z,3.81
2015-09-03T00:05:47.081Z,3.84
2015-09-03T00:05:59.487Z,3.78
2015-09-03T00:06:11.896Z,3.76
2015-09-03T00:06:24.302Z,3.81
2015-09-03T00:06:36.724Z,3.81
2015-09-03T00:06:49.114Z,3.78
2015-09-03T00:07:01.505Z,3.85
2015-09-03T00:07:13.898Z,3.81
2015-09-03T00:07:26.288Z,3.78
2015-09-03T00:07:38.710Z,3.81
2015-09-03T00:07:51.116Z,3.82
2015-09-03T00:08:03.554Z,3.86
2015-09-03T00:08:15.947Z,3.82
2015-09-03T00:08:27.634Z,3.89
2015-09-03T00:08:40.025Z,3.89
2015-09-03T00:08:52.415Z,3.9
2015-09-03T00:09:04.806Z,3.84
2015-09-03T00:09:17.214Z,3.89
2015-09-03T00:09:29.620Z,3.89
2015-09-03T00:09:42.027Z,3.86
2015-09-03T00:09:54.449Z,3.82
2015-09-03T00:10:06.839Z,3.81
2015-09-03T00:10:19.232Z,3.85
2015-09-03T00:10:31.622Z,3.86
2015-09-03T00:10:43.310Z,3.85
2015-09-03T00:10:55.701Z,3.76
2015-09-03T00:11:08.091Z,3.79
2015-09-03T00:11:20.498Z,3.81
2015-09-03T00:11:32.920Z,3.74
2015-09-03T00:11:45.342Z,3.76
2015-09-03T00:11:57.795Z,3.79
2015-09-03T00:12:10.186Z,3.74
2015-09-03T00:12:22.580Z,3.76
2015-09-03T00:12:34.970Z,3.82
2015-09-03T00:12:47.361Z,3.74
2015-09-03T00:12:59.751Z,3.81
2015-09-03T00:13:12.158Z,3.9
2015-09-03T00:13:24.581Z,3.76
2015-09-03T00:13:37.002Z,3.92
2015-09-03T00:13:49.424Z,3.78
2015-09-03T00:14:01.831Z,3.85
2015-09-03T00:14:13.502Z,3.79
2015-09-03T00:14:25.896Z,3.78
2015-09-03T00:14:38.287Z,3.84
2015-09-03T00:14:50.677Z,3.79
2015-09-03T00:15:03.084Z,3.82
2015-09-03T00:15:15.491Z,3.81
2015-09-03T00:15:27.772Z,3.75
2015-09-03T00:15:40.194Z,3.78
2015-09-03T00:15:52.600Z,3.82
2015-09-03T00:16:04.991Z,3.78
2015-09-03T00:16:17.383Z,3.75
2015-09-03T00:16:29.774Z,3.76
2015-09-03T00:16:42.165Z,3.75
2015-09-03T00:16:54.555Z,3.72
2015-09-03T00:17:06.962Z,3.74
2015-09-03T00:17:19.385Z,3.75
2015-09-03T00:17:31.807Z,3.76
2015-09-03T00:17:44.198Z,3.72
2015-09-03T00:17:56.589Z,3.85
2015-09-03T00:18:08.979Z,3.76
2015-09-03T00:18:21.372Z,3.76
2015-09-03T00:18:33.762Z,3.76
2015-09-03T00:18:46.169Z,3.76
2015-09-03T00:18:58.591Z,3.67
2015-09-03T00:19:10.997Z,3.78
2015-09-03T00:19:23.389Z,3.72
2015-09-03T00:19:35.796Z,3.76
2015-09-03T00:19:48.186Z,3.82
2015-09-03T00:20:00.577Z,3.75
2015-09-03T00:20:12.983Z,3.75
2015-09-03T00:20:25.391Z,3.86
2015-09-03T00:20:37.813Z,3.76
2015-09-03T00:20:50.235Z,3.75
2015-09-03T00:21:02.657Z,3.74
2015-09-03T00:21:15.063Z,3.75
2015-09-03T00:21:27.456Z,3.75
2015-09-03T00:21:39.847Z,3.72
2015-09-03T00:21:52.253Z,3.74
2015-09-03T00:22:04.659Z,3.75
2015-09-03T00:22:17.065Z,3.81
2015-09-03T00:22:29.474Z,3.66
2015-09-03T00:22:41.895Z,3.72
2015-09-03T00:22:54.317Z,3.67
2015-09-03T00:23:06.755Z,3.72
2015-09-03T00:23:19.147Z,3.71
2015-09-03T00:23:31.538Z,3.69
2015-09-03T00:23:43.913Z,3.71
2015-09-03T00:23:56.304Z,3.67
2015-09-03T00:24:08.710Z,3.66
2015-09-03T00:24:21.103Z,3.72
2015-09-03T00:24:33.540Z,3.64
2015-09-03T00:24:45.962Z,3.64
2015-09-03T00:24:57.665Z,3.69
2015-09-03T00:25:10.087Z,3.69
2015-09-03T00:25:22.494Z,3.66
2015-09-03T00:25:34.869Z,3.66
2015-09-03T00:25:47.275Z,3.53
2015-09-03T00:25:59.666Z,3.58
2015-09-03T00:26:12.072Z,3.66
2015-09-03T00:26:24.465Z,3.64
2015-09-03T00:26:36.887Z,3.58
2015-09-03T00:26:49.309Z,3.58
2015-09-03T00:27:01.715Z,3.63
2015-09-03T00:27:14.121Z,3.6
2015-09-03T00:27:26.498Z,3.61
2015-09-03T00:27:38.904Z,3.61
2015-09-03T00:27:51.295Z,3.57
2015-09-03T00:28:03.701Z,3.61
2015-09-03T00:28:16.108Z,3.6
2015-09-03T00:28:28.517Z,3.58
2015-09-03T00:28:40.939Z,3.57
2015-09-03T00:28:53.345Z,3.61
2015-09-03T00:29:05.736Z,3.57
2015-09-03T00:29:18.126Z,3.6
2015-09-03T00:29:30.518Z,3.56
2015-09-03T00:29:42.908Z,3.48
2015-09-03T00:29:55.299Z,3.53
2015-09-03T00:30:07.705Z,3.53
2015-09-03T00:30:19.252Z,3.46
2015-09-03T00:30:31.677Z,3.57
2015-09-03T00:30:44.099Z,3.56
2015-09-03T00:30:56.505Z,3.51
2015-09-03T00:31:08.880Z,3.54
2015-09-03T00:31:21.287Z,3.51
2015-09-03T00:31:33.694Z,3.51
2015-09-03T00:31:46.069Z,3.51
2015-09-03T00:31:58.475Z,3.51
2015-09-03T00:32:10.897Z,3.49
2015-09-03T00:32:23.336Z,3.49
2015-09-03T00:32:35.758Z,3.54
2015-09-03T00:32:48.149Z,3.53
2015-09-03T00:33:00.539Z,3.53
2015-09-03T00:33:12.930Z,3.46
2015-09-03T00:33:25.323Z,3.54
2015-09-03T00:33:37.729Z,3.56
2015-09-03T00:33:49.979Z,3.51
2015-09-03T00:34:02.385Z,3.53
2015-09-03T00:34:14.807Z,3.45
2015-09-03T00:34:27.231Z,3.48
2015-09-03T00:34:39.622Z,3.51
2015-09-03T00:34:52.012Z,3.4
2015-09-03T00:35:04.403Z,3.48
2015-09-03T00:35:16.793Z,3.48
2015-09-03T00:35:29.202Z,3.46
2015-09-03T00:35:41.608Z,3.48
2015-09-03T00:35:54.030Z,3.46
2015-09-03T00:36:06.436Z,3.51
2015-09-03T00:36:18.842Z,3.43
2015-09-03T00:36:31.218Z,3.37
2015-09-03T00:36:43.609Z,3.46
2015-09-03T00:36:56.015Z,3.54
2015-09-03T00:37:08.421Z,3.48
2015-09-03T00:37:20.843Z,3.46
2015-09-03T00:37:33.268Z,3.48
2015-09-03T00:37:45.690Z,3.49
2015-09-03T00:37:58.081Z,3.51
2015-09-03T00:38:10.471Z,3.48
2015-09-03T00:38:22.878Z,3.56
2015-09-03T00:38:35.270Z,3.43
2015-09-03T00:38:47.645Z,3.56
2015-09-03T00:39:00.051Z,3.49
2015-09-03T00:39:12.458Z,3.49
2015-09-03T00:39:24.882Z,3.46
2015-09-03T00:39:37.288Z,3.51
2015-09-03T00:39:49.663Z,3.49
2015-09-03T00:40:02.053Z,3.51
2015-09-03T00:40:14.460Z,3.46
2015-09-03T00:40:26.868Z,3.51
2015-09-03T00:40:39.274Z,3.46
2015-09-03T00:40:51.680Z,3.49
2015-09-03T00:41:04.102Z,3.53
2015-09-03T00:41:16.524Z,3.51
2015-09-03T00:41:28.948Z,3.49
2015-09-03T00:41:41.339Z,3.49
2015-09-03T00:41:53.729Z,3.51
2015-09-03T00:42:06.151Z,3.51
2015-09-03T00:42:18.526Z,3.53
2015-09-03T00:42:30.933Z,3.48
2015-09-03T00:42:43.340Z,3.48
2015-09-03T00:42:55.762Z,3.49
2015-09-03T00:43:08.199Z,3.53
2015-09-03T00:43:20.605Z,3.48
2015-09-03T00:43:32.999Z,3.46
2015-09-03T00:43:45.390Z,3.51
2015-09-03T00:43:57.796Z,3.46
2015-09-03T00:44:10.186Z,3.51
2015-09-03T00:44:22.577Z,3.49
2015-09-03T00:44:35.001Z,3.49
2015-09-03T00:44:47.423Z,3.49
2015-09-03T00:44:59.142Z,3.49
2015-09-03T00:45:10.845Z,3.53
2015-09-03T00:45:23.282Z,3.54
2015-09-03T00:45:35.674Z,3.56
2015-09-03T00:45:48.049Z,3.53
2015-09-03T00:46:00.439Z,3.48
2015-09-03T00:46:12.830Z,3.57
2015-09-03T00:46:25.221Z,3.54
2015-09-03T00:46:37.629Z,3.56
2015-09-03T00:46:50.066Z,3.51
2015-09-03T00:47:02.473Z,3.48
2015-09-03T00:47:14.895Z,3.53
2015-09-03T00:47:27.288Z,3.53
2015-09-03T00:47:39.663Z,3.51
2015-09-03T00:47:52.054Z,3.61
2015-09-03T00:48:04.444Z,3.53
2015-09-03T00:48:16.835Z,3.53
2015-09-03T00:48:28.524Z,3.54
2015-09-03T00:48:40.930Z,3.58
2015-09-03T00:48:53.352Z,3.49
2015-09-03T00:49:05.758Z,3.49
2015-09-03T00:49:18.149Z,3.48
2015-09-03T00:49:30.526Z,3.46
2015-09-03T00:49:42.916Z,3.51
2015-09-03T00:49:55.322Z,3.49
2015-09-03T00:50:07.713Z,3.51
2015-09-03T00:50:20.135Z,3.53
2015-09-03T00:50:32.543Z,3.54
2015-09-03T00:50:44.949Z,3.54
2015-09-03T00:50:57.371Z,3.51
2015-09-03T00:51:09.793Z,3.43
2015-09-03T00:51:22.231Z,3.49
2015-09-03T00:51:34.623Z,3.48
2015-09-03T00:51:47.014Z,3.46
2015-09-03T00:51:59.405Z,3.46
2015-09-03T00:52:11.811Z,3.46
2015-09-03T00:52:24.201Z,3.49
2015-09-03T00:52:36.609Z,3.43
2015-09-03T00:52:49.015Z,3.51
2015-09-03T00:53:01.452Z,3.45
2015-09-03T00:53:13.874Z,3.4
2015-09-03T00:53:26.268Z,3.45
2015-09-03T00:53:38.643Z,3.45
2015-09-03T00:53:51.034Z,3.45
2015-09-03T00:54:03.424Z,3.49
2015-09-03T00:54:15.815Z,3.48
2015-09-03T00:54:28.223Z,3.42
2015-09-03T00:54:40.629Z,3.34
2015-09-03T00:54:53.051Z,3.46
2015-09-03T00:55:05.473Z,3.3
2015-09-03T00:55:17.911Z,3.42
2015-09-03T00:55:30.302Z,3.45
2015-09-03T00:55:42.693Z,3.45
2015-09-03T00:55:55.083Z,3.42
2015-09-03T00:56:07.490Z,3.35
2015-09-03T00:56:19.896Z,3.46
2015-09-03T00:56:32.305Z,3.43
2015-09-03T00:56:44.727Z,3.39
2015-09-03T00:56:57.133Z,3.4
2015-09-03T00:57:09.524Z,3.35
2015-09-03T00:57:21.915Z,3.39
2015-09-03T00:57:34.306Z,3.3
2015-09-03T00:57:46.697Z,3.32
2015-09-03T00:57:59.103Z,3.37
2015-09-03T00:58:11.494Z,3.32
2015-09-03T00:58:23.916Z,3.37
2015-09-03T00:58:36.340Z,3.32
2015-09-03T00:58:48.762Z,3.32
2015-09-03T00:59:01.169Z,3.39
2015-09-03T00:59:13.559Z,3.32
2015-09-03T00:59:25.950Z,3.43
2015-09-03T00:59:38.341Z,3.42
2015-09-03T00:59:50.732Z,3.34
2015-09-03T01:00:03.138Z,3.43
2015-09-03T01:00:15.545Z,3.43
2015-09-03T01:00:27.982Z,3.45
2015-09-03T01:00:40.406Z,3.3
2015-09-03T01:00:52.812Z,3.4
2015-09-03T01:01:05.203Z,3.43
2015-09-03T01:01:17.593Z,3.39
2015-09-03T01:01:29.986Z,3.39
2015-09-03T01:01:42.377Z,3.27
2015-09-03T01:01:54.783Z,3.49
2015-09-03T01:02:07.205Z,3.43
2015-09-03T01:02:19.611Z,3.43
2015-09-03T01:02:32.035Z,3.4
2015-09-03T01:02:44.457Z,3.45
2015-09-03T01:02:56.847Z,3.48
2015-09-03T01:03:09.238Z,3.46
2015-09-03T01:03:21.629Z,3.43
2015-09-03T01:03:34.021Z,3.49
2015-09-03T01:03:46.428Z,3.46
2015-09-03T01:03:58.849Z,3.51
2015-09-03T01:04:11.271Z,3.43
2015-09-03T01:04:23.693Z,3.46
2015-09-03T01:04:36.117Z,3.42
2015-09-03T01:04:48.508Z,3.54
2015-09-03T01:05:00.898Z,3.48
2015-09-03T01:05:13.289Z,3.45
2015-09-03T01:05:25.680Z,3.46
2015-09-03T01:05:38.088Z,3.46
2015-09-03T01:05:50.494Z,3.45
2015-09-03T01:06:02.932Z,3.37
2015-09-03T01:06:15.353Z,3.46
2015-09-03T01:06:27.775Z,3.54
2015-09-03T01:06:40.168Z,3.48
2015-09-03T01:06:52.543Z,3.45
2015-09-03T01:07:04.949Z,3.42
2015-09-03T01:07:17.340Z,3.57
2015-09-03T01:07:29.746Z,3.51
2015-09-03T01:07:42.154Z,3.4
2015-09-03T01:07:54.576Z,3.49
2015-09-03T01:08:06.998Z,3.37
2015-09-03T01:08:19.420Z,3.53
2015-09-03T01:08:31.842Z,3.43
2015-09-03T01:08:44.218Z,3.43
2015-09-03T01:08:56.608Z,3.43
2015-09-03T01:09:08.999Z,3.49
2015-09-03T01:09:21.390Z,3.35
2015-09-03T01:09:33.798Z,3.43
2015-09-03T01:09:46.220Z,3.45
2015-09-03T01:09:58.642Z,3.43
2015-09-03T01:10:11.064Z,3.45
2015-09-03T01:10:23.485Z,3.43
2015-09-03T01:10:35.753Z,3.43
2015-09-03T01:10:48.144Z,3.43
2015-09-03T01:11:00.550Z,3.42
2015-09-03T01:11:12.925Z,3.45
2015-09-03T01:11:25.316Z,3.42
2015-09-03T01:11:37.724Z,3.34
2015-09-03T01:11:50.130Z,3.43
2015-09-03T01:12:02.568Z,3.4
2015-09-03T01:12:14.974Z,3.45
2015-09-03T01:12:27.364Z,3.4
2015-09-03T01:12:39.758Z,3.4
2015-09-03T01:12:52.149Z,3.46
2015-09-03T01:13:04.539Z,3.35
2015-09-03T01:13:16.961Z,3.43
2015-09-03T01:13:28.649Z,3.4
2015-09-03T01:13:41.073Z,3.49
2015-09-03T01:13:53.494Z,3.42
2015-09-03T01:14:05.916Z,3.42
2015-09-03T01:14:18.338Z,3.45
2015-09-03T01:14:30.760Z,3.4
2015-09-03T01:14:43.152Z,3.48
2015-09-03T01:14:55.558Z,3.43
2015-09-03T01:15:07.230Z,3.43
2015-09-03T01:15:19.636Z,3.37
2015-09-03T01:15:32.027Z,3.32
2015-09-03T01:15:44.419Z,3.48
2015-09-03T01:15:56.826Z,3.3
2015-09-03T01:16:09.216Z,3.43
2015-09-03T01:16:21.622Z,3.4
2015-09-03T01:16:34.013Z,3.32
2015-09-03T01:16:46.421Z,3.42
2015-09-03T01:16:58.828Z,3.48
2015-09-03T01:17:11.234Z,3.4
2015-09-03T01:17:23.671Z,3.35
2015-09-03T01:17:36.093Z,3.43
2015-09-03T01:17:48.548Z,3.35
2015-09-03T01:18:00.251Z,3.34
2015-09-03T01:18:12.673Z,3.46
2015-09-03T01:18:25.095Z,3.51
2015-09-03T01:18:37.517Z,3.42
2015-09-03T01:18:49.925Z,3.43
2015-09-03T01:19:02.316Z,3.34
2015-09-03T01:19:14.707Z,3.35
2015-09-03T01:19:27.113Z,3.45
2015-09-03T01:19:39.519Z,3.43
2015-09-03T01:19:51.927Z,3.42
2015-09-03T01:20:04.318Z,3.48
2015-09-03T01:20:16.709Z,3.46
2015-09-03T01:20:29.099Z,3.45
2015-09-03T01:20:41.490Z,3.4
2015-09-03T01:20:53.914Z,3.39
2015-09-03T01:21:06.320Z,3.35
2015-09-03T01:21:18.726Z,3.43
2015-09-03T01:21:31.148Z,3.39
2015-09-03T01:21:43.570Z,3.32
2015-09-03T01:21:55.306Z,3.39
2015-09-03T01:22:07.728Z,3.34
2015-09-03T01:22:20.150Z,3.39
2015-09-03T01:22:32.572Z,3.35
2015-09-03T01:22:45.025Z,3.32
2015-09-03T01:22:57.465Z,3.3
2015-09-03T01:23:09.855Z,3.34
2015-09-03T01:23:22.246Z,3.37
2015-09-03T01:23:34.652Z,3.43
2015-09-03T01:23:47.043Z,3.32
2015-09-03T01:23:59.451Z,3.35
2015-09-03T01:24:11.842Z,3.32
2015-09-03T01:24:24.232Z,3.32
2015-09-03T01:24:36.638Z,3.32
2015-09-03T01:24:49.045Z,3.29
2015-09-03T01:25:01.469Z,3.27
2015-09-03T01:25:13.859Z,3.29
2015-09-03T01:25:26.250Z,3.32
2015-09-03T01:25:38.640Z,3.35
2015-09-03T01:25:51.031Z,3.3
2015-09-03T01:26:03.424Z,3.35
2015-09-03T01:26:15.830Z,3.34
2015-09-03T01:26:28.236Z,3.3
2015-09-03T01:26:40.658Z,3.34
2015-09-03T01:26:53.098Z,3.32
2015-09-03T01:27:05.535Z,3.32
2015-09-03T01:27:17.910Z,3.34
2015-09-03T01:27:30.285Z,3.29
2015-09-03T01:27:42.676Z,3.35
2015-09-03T01:27:55.068Z,3.35
2015-09-03T01:28:07.443Z,3.34
2015-09-03T01:28:19.834Z,3.29
2015-09-03T01:28:32.240Z,3.34
2015-09-03T01:28:44.662Z,3.27
2015-09-03T01:28:57.086Z,3.29
2015-09-03T01:29:09.508Z,3.32
2015-09-03T01:29:21.898Z,3.29
2015-09-03T01:29:34.289Z,3.27
2015-09-03T01:29:46.680Z,3.32
2015-09-03T01:29:59.072Z,3.34
2015-09-03T01:30:11.479Z,3.29
2015-09-03T01:30:23.869Z,3.3
2015-09-03T01:30:36.400Z,3.35
2015-09-03T01:30:48.807Z,3.3
2015-09-03T01:31:01.231Z,3.17
2015-09-03T01:31:13.621Z,3.32
2015-09-03T01:31:26.012Z,3.24
2015-09-03T01:31:38.418Z,3.27
2015-09-03T01:31:50.809Z,3.3
2015-09-03T01:32:03.217Z,3.29
2015-09-03T01:32:15.623Z,3.32
2015-09-03T01:32:28.061Z,3.3
2015-09-03T01:32:40.467Z,3.32
2015-09-03T01:32:52.904Z,3.23
2015-09-03T01:33:05.296Z,3.24
2015-09-03T01:33:17.687Z,3.24
2015-09-03T01:33:30.077Z,3.3
2015-09-03T01:33:42.468Z,3.29
2015-09-03T01:33:54.874Z,3.34
2015-09-03T01:34:07.283Z,3.21
2015-09-03T01:34:19.705Z,3.3
2015-09-03T01:34:32.127Z,3.27
2015-09-03T01:34:44.533Z,3.2
2015-09-03T01:34:56.940Z,3.27
2015-09-03T01:35:09.332Z,3.3
2015-09-03T01:35:21.723Z,3.27
2015-09-03T01:35:34.114Z,3.27
2015-09-03T01:35:46.504Z,3.27
2015-09-03T01:35:58.912Z,3.26
2015-09-03T01:36:11.319Z,3.24
2015-09-03T01:36:23.741Z,3.26
2015-09-03T01:36:36.162Z,3.3
2015-09-03T01:36:48.584Z,3.29
2015-09-03T01:37:00.977Z,3.29
2015-09-03T01:37:13.368Z,3.27
2015-09-03T01:37:25.758Z,3.27
2015-09-03T01:37:38.133Z,3.32
2015-09-03T01:37:50.524Z,3.29
2015-09-03T01:38:02.931Z,3.29
2015-09-03T01:38:15.337Z,3.34
2015-09-03T01:38:27.775Z,3.32
2015-09-03T01:38:40.181Z,3.26
2015-09-03T01:38:52.572Z,3.32
2015-09-03T01:39:04.964Z,3.27
2015-09-03T01:39:17.355Z,3.26
2015-09-03T01:39:29.746Z,3.27
2015-09-03T01:39:42.152Z,3.34
2015-09-03T01:39:54.558Z,3.3
2015-09-03T01:40:06.982Z,3.35
2015-09-03T01:40:19.388Z,3.26
2015-09-03T01:40:31.779Z,3.3
2015-09-03T01:40:44.169Z,3.29
2015-09-03T01:40:56.560Z,3.3
2015-09-03T01:41:08.953Z,3.32
2015-09-03T01:41:21.359Z,3.26
2015-09-03T01:41:33.750Z,3.24
2015-09-03T01:41:46.156Z,3.3
2015-09-03T01:41:58.562Z,3.27
2015-09-03T01:42:10.986Z,3.32
2015-09-03T01:42:23.392Z,3.32
2015-09-03T01:42:35.830Z,3.34
2015-09-03T01:42:48.252Z,3.34
2015-09-03T01:43:00.689Z,3.34
2015-09-03T01:43:13.113Z,3.3
2015-09-03T01:43:25.535Z,3.34
2015-09-03T01:43:37.972Z,3.29
2015-09-03T01:43:50.379Z,3.27
2015-09-03T01:44:02.785Z,3.32
2015-09-03T01:44:15.176Z,3.34
2015-09-03T01:44:27.567Z,3.3
2015-09-03T01:44:39.958Z,3.3
2015-09-03T01:44:52.364Z,3.32
2015-09-03T01:45:04.770Z,3.35
2015-09-03T01:45:17.163Z,3.34
2015-09-03T01:45:29.569Z,3.3
2015-09-03T01:45:41.960Z,3.29
2015-09-03T01:45:54.350Z,3.32
2015-09-03T01:46:06.757Z,3.3
2015-09-03T01:46:19.181Z,3.32
2015-09-03T01:46:30.885Z,3.32
2015-09-03T01:46:43.306Z,3.29
2015-09-03T01:46:55.728Z,3.34
2015-09-03T01:47:08.166Z,3.34
2015-09-03T01:47:20.589Z,3.35
2015-09-03T01:47:33.011Z,3.3
2015-09-03T01:47:45.432Z,3.32
2015-09-03T01:47:57.854Z,3.37
2015-09-03T01:48:10.261Z,3.37
2015-09-03T01:48:22.654Z,3.32
2015-09-03T01:48:35.045Z,3.32
2015-09-03T01:48:47.451Z,3.3
2015-09-03T01:48:59.826Z,3.27
2015-09-03T01:49:12.217Z,3.34
2015-09-03T01:49:24.625Z,3.32
2015-09-03T01:49:37.031Z,3.34
2015-09-03T01:49:49.437Z,3.39
2015-09-03T01:50:01.891Z,3.35
2015-09-03T01:50:14.314Z,3.3
2015-09-03T01:50:26.689Z,3.39
2015-09-03T01:50:39.096Z,3.37
2015-09-03T01:50:52.189Z,3.34
2015-09-03T01:51:04.580Z,3.32
2015-09-03T01:51:16.973Z,3.35
2015-09-03T01:51:29.379Z,3.37
2015-09-03T01:51:41.770Z,3.24
2015-09-03T01:51:54.191Z,3.42
2015-09-03T01:52:06.613Z,3.37
2015-09-03T01:52:18.333Z,3.39
2015-09-03T01:52:30.755Z,3.34
2015-09-03T01:52:43.177Z,3.35
2015-09-03T01:52:55.599Z,3.39
2015-09-03T01:53:08.021Z,3.39
2015-09-03T01:53:20.444Z,3.37
2015-09-03T01:53:32.866Z,3.3
2015-09-03T01:53:45.257Z,3.35
2015-09-03T01:53:57.648Z,3.32
2015-09-03T01:54:10.054Z,3.37
2015-09-03T01:54:22.446Z,3.27
2015-09-03T01:54:34.837Z,3.29
2015-09-03T01:54:47.243Z,3.3
2015-09-03T01:54:59.634Z,3.32
2015-09-03T01:55:12.025Z,3.29
2015-09-03T01:55:24.418Z,3.43
2015-09-03T01:55:36.809Z,3.35
2015-09-03T01:55:49.215Z,3.32
2015-09-03T01:56:01.637Z,3.46
2015-09-03T01:56:14.059Z,3.34
2015-09-03T01:56:26.483Z,3.37
2015-09-03T01:56:38.905Z,3.4
2015-09-03T01:56:51.342Z,3.35
2015-09-03T01:57:03.780Z,3.48
2015-09-03T01:57:16.201Z,3.43
2015-09-03T01:57:28.625Z,3.35
2015-09-03T01:57:41.063Z,3.46
2015-09-03T01:57:53.485Z,3.4
2015-09-03T01:58:05.875Z,3.46
2015-09-03T01:58:18.266Z,3.43
2015-09-03T01:58:30.658Z,3.48
2015-09-03T01:58:43.064Z,3.46
2015-09-03T01:58:55.470Z,3.43
2015-09-03T01:59:07.861Z,3.45
2015-09-03T01:59:20.267Z,3.43
2015-09-03T01:59:32.661Z,3.37
2015-09-03T01:59:45.051Z,3.42
2015-09-03T01:59:57.457Z,3.46
2015-09-03T02:00:09.895Z,3.42
2015-09-03T02:00:21.598Z,3.53
2015-09-03T02:00:34.037Z,3.54
2015-09-03T02:00:46.474Z,3.53
2015-09-03T02:00:58.880Z,3.46
2015-09-03T02:01:11.271Z,3.49
2015-09-03T02:01:23.662Z,3.49
2015-09-03T02:01:36.054Z,3.49
2015-09-03T02:01:47.742Z,3.49
2015-09-03T02:02:00.148Z,3.48
2015-09-03T02:02:12.570Z,3.43
2015-09-03T02:02:25.007Z,3.4
2015-09-03T02:02:37.416Z,3.54
2015-09-03T02:02:49.087Z,3.48
2015-09-03T02:03:01.494Z,3.48
2015-09-03T02:03:13.869Z,3.48
2015-09-03T02:03:26.259Z,3.49
2015-09-03T02:03:38.668Z,3.51
2015-09-03T02:03:51.074Z,3.46
2015-09-03T02:04:03.480Z,3.49
2015-09-03T02:04:15.902Z,3.48
2015-09-03T02:04:28.324Z,3.46
2015-09-03T02:04:40.716Z,3.48
2015-09-03T02:04:53.107Z,3.46
2015-09-03T02:05:05.498Z,3.49
2015-09-03T02:05:17.888Z,3.51
2015-09-03T02:05:30.279Z,3.49
2015-09-03T02:05:42.687Z,3.49
2015-09-03T02:05:55.109Z,3.53
2015-09-03T02:06:07.547Z,3.53
2015-09-03T02:06:19.953Z,3.51
2015-09-03T02:06:32.377Z,3.48
2015-09-03T02:06:44.049Z,3.46
2015-09-03T02:06:56.439Z,3.48
2015-09-03T02:07:08.830Z,3.42
2015-09-03T02:07:21.205Z,3.43
2015-09-03T02:07:33.597Z,3.37
2015-09-03T02:07:45.988Z,3.42
2015-09-03T02:07:58.410Z,3.42
2015-09-03T02:08:10.847Z,3.39
2015-09-03T02:08:23.254Z,3.34
2015-09-03T02:08:35.646Z,3.39
2015-09-03T02:08:48.037Z,3.27
2015-09-03T02:09:00.428Z,3.39
2015-09-03T02:09:12.818Z,3.35
2015-09-03T02:09:25.193Z,3.34
2015-09-03T02:09:37.601Z,3.37
2015-09-03T02:09:50.023Z,3.39
2015-09-03T02:10:02.445Z,3.37
2015-09-03T02:10:14.851Z,3.35
2015-09-03T02:10:27.258Z,3.34
2015-09-03T02:10:39.650Z,3.35
2015-09-03T02:10:52.041Z,3.27
2015-09-03T02:11:04.432Z,3.32
2015-09-03T02:11:16.822Z,3.24
2015-09-03T02:11:29.228Z,3.2
2015-09-03T02:11:41.621Z,3.27
2015-09-03T02:11:54.027Z,3.27
2015-09-03T02:12:06.434Z,3.24
2015-09-03T02:12:18.855Z,3.26
2015-09-03T02:12:31.262Z,3.27
2015-09-03T02:12:43.686Z,3.26
2015-09-03T02:12:56.123Z,3.21
2015-09-03T02:13:08.561Z,3.29
2015-09-03T02:13:20.967Z,3.24
2015-09-03T02:13:33.389Z,3.14
2015-09-03T02:13:45.813Z,3.24
2015-09-03T02:13:58.250Z,3.26
2015-09-03T02:14:10.641Z,3.2
2015-09-03T02:14:23.047Z,3.27
2015-09-03T02:14:35.438Z,3.19
2015-09-03T02:14:47.830Z,3.3
2015-09-03T02:15:00.221Z,3.24
2015-09-03T02:15:12.627Z,3.2
2015-09-03T02:15:25.049Z,3.29
2015-09-03T02:15:37.440Z,3.24
2015-09-03T02:15:49.831Z,3.21
2015-09-03T02:16:02.237Z,3.2
2015-09-03T02:16:14.644Z,3.2
2015-09-03T02:16:27.050Z,3.23
2015-09-03T02:16:39.456Z,3.21
2015-09-03T02:16:51.880Z,3.27
2015-09-03T02:17:04.302Z,3.23
2015-09-03T02:17:16.739Z,3.19
2015-09-03T02:17:29.161Z,3.19
2015-09-03T02:17:41.583Z,3.2
2015-09-03T02:17:54.007Z,3.2
2015-09-03T02:18:06.445Z,3.21
2015-09-03T02:18:18.898Z,3.21
2015-09-03T02:18:31.288Z,3.19
2015-09-03T02:18:43.679Z,3.26
2015-09-03T02:18:56.072Z,3.21
2015-09-03T02:19:08.462Z,3.19
2015-09-03T02:19:20.868Z,3.19
2015-09-03T02:19:33.259Z,3.19
2015-09-03T02:19:45.650Z,3.19
2015-09-03T02:19:58.059Z,3.14
2015-09-03T02:20:10.450Z,3.24
2015-09-03T02:20:22.856Z,3.24
2015-09-03T02:20:35.262Z,3.17
2015-09-03T02:20:47.668Z,3.2
2015-09-03T02:21:00.091Z,3.17
2015-09-03T02:21:11.779Z,3.14
2015-09-03T02:21:24.201Z,3.13
2015-09-03T02:21:36.638Z,3.27
2015-09-03T02:21:49.060Z,3.2
2015-09-03T02:22:01.500Z,3.16
2015-09-03T02:22:13.922Z,3.17
2015-09-03T02:22:26.344Z,3.23
2015-09-03T02:22:38.782Z,3.16
2015-09-03T02:22:51.188Z,3.26
2015-09-03T02:23:03.580Z,3.19
2015-09-03T02:23:15.970Z,3.14
2015-09-03T02:23:28.361Z,3.17
2015-09-03T02:23:40.767Z,3.23
2015-09-03T02:23:53.158Z,3.23
2015-09-03T02:24:05.566Z,3.23
2015-09-03T02:24:17.253Z,3.21
2015-09-03T02:24:29.644Z,3.21
2015-09-03T02:24:42.035Z,3.17
2015-09-03T02:24:54.441Z,3.17
2015-09-03T02:25:06.849Z,3.23
2015-09-03T02:25:19.255Z,3.21
2015-09-03T02:25:31.662Z,3.2
2015-09-03T02:25:44.084Z,3.3
2015-09-03T02:25:56.505Z,3.26
2015-09-03T02:26:08.961Z,3.26
2015-09-03T02:26:21.382Z,3.34
2015-09-03T02:26:33.804Z,3.26
2015-09-03T02:26:46.226Z,3.27
2015-09-03T02:26:58.648Z,3.29
2015-09-03T02:27:11.073Z,3.29
2015-09-03T02:27:23.479Z,3.3
2015-09-03T02:27:35.870Z,3.27
2015-09-03T02:27:48.260Z,3.29
2015-09-03T02:28:00.651Z,3.27
2015-09-03T02:28:13.059Z,3.27
2015-09-03T02:28:25.465Z,3.32
2015-09-03T02:28:37.856Z,3.3
2015-09-03T02:28:50.246Z,3.29
2015-09-03T02:29:02.637Z,3.35
2015-09-03T02:29:15.082Z,3.35
2015-09-03T02:29:27.488Z,3.29
2015-09-03T02:29:39.894Z,3.32
2015-09-03T02:29:52.300Z,3.29
2015-09-03T02:30:04.722Z,3.26
2015-09-03T02:30:16.448Z,3.26
2015-09-03T02:30:28.886Z,3.2
2015-09-03T02:30:41.308Z,3.26
2015-09-03T02:30:53.730Z,3.32
2015-09-03T02:31:06.152Z,3.27
2015-09-03T02:31:18.595Z,3.27
2015-09-03T02:31:31.017Z,3.24
2015-09-03T02:31:42.720Z,3.17
2015-09-03T02:31:55.111Z,3.13
2015-09-03T02:32:07.502Z,3.23
2015-09-03T02:32:19.915Z,3.24
2015-09-03T02:32:32.306Z,3.17
2015-09-03T02:32:44.697Z,3.17
2015-09-03T02:32:57.087Z,3.2
2015-09-03T02:33:09.478Z,3.26
2015-09-03T02:33:21.894Z,3.14
2015-09-03T02:33:34.285Z,3.17
2015-09-03T02:33:46.675Z,3.13
2015-09-03T02:33:58.363Z,3.08
2015-09-03T02:34:10.769Z,3.17
2015-09-03T02:34:23.185Z,3.03
2015-09-03T02:34:35.607Z,3.2
2015-09-03T02:34:48.029Z,3.2
2015-09-03T02:35:00.467Z,3.11
2015-09-03T02:35:12.888Z,3.09
2015-09-03T02:35:25.319Z,3.14
2015-09-03T02:35:37.741Z,3.19
2015-09-03T02:35:50.163Z,3.14
2015-09-03T02:36:02.585Z,3.14
2015-09-03T02:36:15.007Z,3.21
2015-09-03T02:36:27.407Z,3.17
2015-09-03T02:36:39.829Z,3.06
2015-09-03T02:36:52.220Z,3.13
2015-09-03T02:37:04.611Z,3.2
2015-09-03T02:37:17.001Z,3.11
2015-09-03T02:37:29.415Z,3.17
2015-09-03T02:37:41.806Z,3.16
2015-09-03T02:37:54.197Z,3.13
2015-09-03T02:38:06.603Z,3.11
2015-09-03T02:38:18.994Z,3.2
2015-09-03T02:38:31.436Z,3.2
2015-09-03T02:38:43.842Z,3.17
2015-09-03T02:38:56.233Z,3.19
2015-09-03T02:39:08.655Z,3.17
2015-09-03T02:39:21.077Z,3.17
2015-09-03T02:39:33.536Z,3.19
2015-09-03T02:39:45.942Z,3.2
2015-09-03T02:39:58.380Z,3.16
2015-09-03T02:40:10.801Z,3.13
2015-09-03T02:40:23.208Z,3.19
2015-09-03T02:40:35.602Z,3.23
2015-09-03T02:40:47.993Z,3.11
2015-09-03T02:41:00.399Z,3.16
2015-09-03T02:41:12.930Z,3.16
2015-09-03T02:41:25.337Z,3.26
2015-09-03T02:41:37.748Z,3.19
2015-09-03T02:41:50.154Z,3.19
2015-09-03T02:42:02.576Z,3.23
2015-09-03T02:42:14.842Z,3.23
2015-09-03T02:42:27.232Z,3.16
2015-09-03T02:42:39.627Z,3.19
2015-09-03T02:42:52.018Z,3.23
2015-09-03T02:43:04.408Z,3.26
2015-09-03T02:43:16.799Z,3.17
2015-09-03T02:43:29.221Z,3.2
2015-09-03T02:43:41.630Z,3.35
2015-09-03T02:43:54.036Z,3.19
2015-09-03T02:44:06.458Z,3.24
2015-09-03T02:44:18.880Z,3.17
2015-09-03T02:44:31.317Z,3.23
2015-09-03T02:44:43.742Z,3.24
2015-09-03T02:44:56.164Z,3.27
2015-09-03T02:45:07.867Z,3.21